Time;durP1;ratioP1;P1;durP2;ratioP2;P2;SDS_P1;SDS_P2;PMS_P1;PMS_P2;Temp;Humidity;BMP_temperature;BMP_pressure;BME280_temperature;BME280_humidity;BME280_pressure;Samples;Min_cycle;Max_cycle;Signal;HPM_P1;HPM_P2
2022/04/29 00:00:30;;;;;;;;;;;5.60;99.90;;;;;;5153902;27;20359;-75
2022/04/29 00:02:55;;;;;;;;;;;5.50;99.90;;;;;;5154790;27;20276;-74
2022/04/29 00:05:21;;;;;;;;;;;5.50;99.90;;;;;;5153813;27;19915;-74
2022/04/29 00:07:47;;;;;;;;;;;5.50;99.90;;;;;;5154250;27;19911;-75
2022/04/29 00:10:14;;;;;;;;;;;5.50;99.90;;;;;;5154514;27;19918;-75
2022/04/29 00:12:41;;;;;;;;;;;5.40;99.90;;;;;;5153927;27;19983;-74
2022/04/29 00:15:07;;;;;;;;;;;5.40;99.90;;;;;;5154291;27;19975;-75
2022/04/29 00:17:33;;;;;;;;;;;5.30;99.90;;;;;;5152768;27;19907;-75
2022/04/29 00:19:58;;;;;;;;;;;5.30;99.90;;;;;;5153965;27;19930;-74
2022/04/29 00:22:24;;;;;;;;;;;5.20;99.90;;;;;;5153740;27;19915;-75
2022/04/29 00:24:50;;;;;;;;;;;5.30;99.90;;;;;;5154279;27;19914;-74
2022/04/29 00:27:16;;;;;;;;;;;5.20;99.90;;;;;;5154240;27;19923;-74
2022/04/29 00:29:41;;;;;;;;;;;5.20;99.90;;;;;;5153545;27;19911;-74
2022/04/29 00:32:07;;;;;;;;;;;5.20;99.90;;;;;;5154369;27;19914;-74
2022/04/29 00:34:33;;;;;;;;;;;5.20;99.90;;;;;;5153710;27;20010;-74
2022/04/29 00:36:58;;;;;;;;;;;5.30;99.90;;;;;;5154073;27;19907;-74
2022/04/29 00:39:24;;;;;;;;;;;5.20;99.90;;;;;;5154262;27;19913;-75
2022/04/29 00:41:50;;;;;;;;;;;5.30;99.90;;;;;;5158447;27;20332;-74
2022/04/29 00:44:16;;;;;;;;;;;5.20;99.90;;;;;;5158441;27;19914;-74
2022/04/29 00:46:42;;;;;;;;;;;5.30;99.90;;;;;;5157777;27;19945;-74
2022/04/29 00:49:15;;;;;;;;;;;5.30;99.90;;;;;;5157833;27;19919;-74
2022/04/29 00:51:42;;;;;;;;;;;5.30;99.90;;;;;;5157749;27;19976;-74
2022/04/29 00:54:08;;;;;;;;;;;5.20;99.90;;;;;;5157925;27;19914;-74
2022/04/29 00:56:36;;;;;;;;;;;5.20;99.90;;;;;;5157573;27;20067;-74
2022/04/29 00:59:03;;;;;;;;;;;5.20;99.90;;;;;;5158222;27;20001;-74
2022/04/29 01:01:31;;;;;;;;;;;5.30;99.90;;;;;;5157517;27;19907;-75
2022/04/29 01:03:58;;;;;;;;;;;5.20;99.90;;;;;;5158041;27;19919;-75
2022/04/29 01:06:25;;;;;;;;;;;5.20;99.90;;;;;;5157954;27;19950;-74
2022/04/29 01:08:50;;;;;;;;;;;5.10;99.90;;;;;;5157361;27;19911;-74
2022/04/29 01:11:18;;;;;;;;;;;5.10;99.90;;;;;;5157984;27;19922;-74
2022/04/29 01:13:43;;;;;;;;;;;5.00;99.90;;;;;;5157307;27;20241;-75
2022/04/29 01:16:09;;;;;;;;;;;5.10;99.90;;;;;;5157866;27;20367;-74
2022/04/29 01:18:35;;;;;;;;;;;5.00;99.90;;;;;;5156941;27;19967;-74
2022/04/29 01:21:04;;;;;;;;;;;5.00;99.90;;;;;;5157603;27;19907;-74
2022/04/29 01:23:31;;;;;;;;;;;5.00;99.90;;;;;;5157128;27;19912;-74
2022/04/29 01:25:57;;;;;;;;;;;4.90;99.90;;;;;;5157677;27;19907;-74
2022/04/29 01:28:24;;;;;;;;;;;4.90;99.90;;;;;;5157315;27;20360;-74
2022/04/29 01:30:51;;;;;;;;;;;4.90;99.90;;;;;;5156773;27;19918;-74
2022/04/29 01:33:18;;;;;;;;;;;4.90;99.90;;;;;;5157487;27;19918;-74
2022/04/29 01:35:43;;;;;;;;;;;4.90;99.90;;;;;;5156786;27;19907;-74
2022/04/29 01:38:09;;;;;;;;;;;4.80;99.90;;;;;;5157292;27;19915;-74
2022/04/29 01:40:34;;;;;;;;;;;4.80;99.90;;;;;;5156721;27;19929;-74
2022/04/29 01:43:00;;;;;;;;;;;4.80;99.90;;;;;;5157251;27;19998;-74
2022/04/29 01:45:26;;;;;;;;;;;4.80;99.90;;;;;;5157165;27;19925;-74
2022/04/29 01:47:51;;;;;;;;;;;4.70;99.90;;;;;;5156290;27;19918;-74
2022/04/29 01:50:17;;;;;;;;;;;4.70;99.90;;;;;;5157003;27;20402;-74
2022/04/29 01:52:42;;;;;;;;;;;4.80;99.90;;;;;;5156820;27;19960;-74
2022/04/29 01:55:08;;;;;;;;;;;4.60;99.90;;;;;;5157175;27;19947;-74
2022/04/29 01:57:35;;;;;;;;;;;4.60;99.90;;;;;;5156426;27;19926;-74
2022/04/29 02:00:00;;;;;;;;;;;4.50;99.90;;;;;;5157002;27;19915;-74
2022/04/29 02:02:28;;;;;;;;;;;4.50;99.90;;;;;;5155755;27;20453;-74
2022/04/29 02:04:53;;;;;;;;;;;4.50;99.90;;;;;;5156611;27;20267;-74
2022/04/29 02:07:19;;;;;;;;;;;4.50;99.90;;;;;;5156578;27;20354;-74
2022/04/29 02:09:45;;;;;;;;;;;4.40;99.90;;;;;;5155745;27;19911;-75
2022/04/29 02:12:11;;;;;;;;;;;4.40;99.90;;;;;;5156925;27;19914;-74
2022/04/29 02:14:38;;;;;;;;;;;4.40;99.90;;;;;;5156615;27;19907;-74
2022/04/29 02:17:04;;;;;;;;;;;4.40;99.90;;;;;;5156921;27;19952;-74
2022/04/29 02:19:30;;;;;;;;;;;4.40;99.90;;;;;;5156490;27;19959;-74
2022/04/29 02:21:56;;;;;;;;;;;4.40;99.90;;;;;;5156431;27;20265;-75
2022/04/29 02:24:21;;;;;;;;;;;4.40;99.90;;;;;;5156722;27;19972;-74
2022/04/29 02:26:47;;;;;;;;;;;4.40;99.90;;;;;;5156111;27;19908;-75
2022/04/29 02:29:13;;;;;;;;;;;4.40;99.90;;;;;;5156665;27;20018;-74
2022/04/29 02:31:38;;;;;;;;;;;4.50;99.90;;;;;;5156032;27;20378;-74
2022/04/29 02:34:04;;;;;;;;;;;4.50;99.90;;;;;;5156572;27;20279;-74
2022/04/29 02:36:29;;;;;;;;;;;4.50;99.90;;;;;;5156739;27;19976;-74
2022/04/29 02:38:55;;;;;;;;;;;4.60;99.90;;;;;;5155631;27;20356;-74
2022/04/29 02:41:21;;;;;;;;;;;4.50;99.90;;;;;;5156385;27;19930;-74
2022/04/29 02:43:46;;;;;;;;;;;4.40;99.90;;;;;;5156082;27;19998;-74
2022/04/29 02:46:12;;;;;;;;;;;4.40;99.90;;;;;;5155813;27;19907;-74
2022/04/29 02:48:37;;;;;;;;;;;4.20;99.90;;;;;;5155401;27;19915;-75
2022/04/29 02:51:04;;;;;;;;;;;4.20;99.90;;;;;;5155876;27;20280;-74
2022/04/29 02:53:30;;;;;;;;;;;4.10;99.90;;;;;;5155573;27;20359;-74
2022/04/29 02:55:56;;;;;;;;;;;4.10;99.90;;;;;;5154664;27;19926;-74
2022/04/29 02:58:22;;;;;;;;;;;4.10;99.90;;;;;;5155919;27;19912;-74
2022/04/29 03:00:48;;;;;;;;;;;4.00;99.90;;;;;;5155258;27;20002;-74
2022/04/29 03:03:13;;;;;;;;;;;3.90;99.90;;;;;;5155781;27;19914;-74
2022/04/29 03:05:39;;;;;;;;;;;3.80;99.90;;;;;;5155366;27;19907;-75
2022/04/29 03:08:05;;;;;;;;;;;3.80;99.90;;;;;;5155440;27;19997;-75
2022/04/29 03:10:31;;;;;;;;;;;3.70;99.90;;;;;;5155358;27;19972;-74
2022/04/29 03:12:56;;;;;;;;;;;3.80;99.90;;;;;;5155403;27;20275;-75
2022/04/29 03:15:25;;;;;;;;;;;3.70;99.90;;;;;;5155310;27;19907;-74
2022/04/29 03:20:36;;;;;;;;;;;3.60;99.90;;;;;;5155356;27;19930;-75
2022/04/29 03:23:02;;;;;;;;;;;3.80;99.90;;;;;;5155211;27;20272;-75
2022/04/29 03:25:28;;;;;;;;;;;3.80;99.90;;;;;;5155541;27;19907;-75
2022/04/29 03:27:53;;;;;;;;;;;3.70;99.90;;;;;;5154864;27;20531;-75
2022/04/29 03:30:19;;;;;;;;;;;3.70;99.90;;;;;;5136782;27;19917;-74
2022/04/29 03:32:52;;;;;;;;;;;3.70;99.90;;;;;;5154798;27;19907;-74
2022/04/29 03:35:18;;;;;;;;;;;3.70;99.90;;;;;;5155217;27;19914;-74
2022/04/29 03:37:44;;;;;;;;;;;3.70;99.90;;;;;;5154677;27;19907;-74
2022/04/29 03:40:10;;;;;;;;;;;3.80;99.90;;;;;;5154982;27;19962;-74
2022/04/29 03:42:36;;;;;;;;;;;3.70;99.90;;;;;;5154952;27;19911;-74
2022/04/29 03:45:01;;;;;;;;;;;3.70;99.90;;;;;;5154692;27;19915;-74
2022/04/29 03:47:27;;;;;;;;;;;3.80;99.90;;;;;;5155049;27;19919;-74
2022/04/29 03:49:52;;;;;;;;;;;3.90;99.90;;;;;;5154447;27;19911;-75
2022/04/29 03:52:18;;;;;;;;;;;3.80;99.90;;;;;;5155132;27;19908;-74
2022/04/29 03:54:44;;;;;;;;;;;3.80;99.90;;;;;;5153855;27;20219;-74
2022/04/29 03:57:09;;;;;;;;;;;3.80;99.90;;;;;;5155111;27;19926;-75
2022/04/29 03:59:35;;;;;;;;;;;3.80;99.90;;;;;;5154663;27;20305;-74
2022/04/29 04:02:00;;;;;;;;;;;3.80;99.90;;;;;;5154091;27;19914;-75
2022/04/29 04:04:26;;;;;;;;;;;3.70;99.90;;;;;;5154811;27;20002;-74
2022/04/29 04:06:52;;;;;;;;;;;3.70;99.90;;;;;;5135749;27;20301;-75
2022/04/29 04:09:19;;;;;;;;;;;3.70;99.90;;;;;;5133847;27;20339;-74
2022/04/29 04:11:45;;;;;;;;;;;3.70;99.90;;;;;;5133602;27;19915;-74
2022/04/29 04:14:10;;;;;;;;;;;3.60;99.90;;;;;;5132737;27;20050;-74
2022/04/29 04:16:36;;;;;;;;;;;3.70;99.90;;;;;;5134267;27;19911;-74
2022/04/29 04:19:02;;;;;;;;;;;3.60;99.90;;;;;;5133375;27;19907;-74
2022/04/29 04:21:28;;;;;;;;;;;3.50;99.90;;;;;;5133704;27;19951;-74
2022/04/29 04:23:54;;;;;;;;;;;3.60;99.90;;;;;;5132816;27;19957;-74
2022/04/29 04:26:19;;;;;;;;;;;3.70;99.90;;;;;;5133762;27;19915;-74
2022/04/29 04:28:45;;;;;;;;;;;3.60;99.90;;;;;;5133144;27;19911;-75
2022/04/29 04:31:11;;;;;;;;;;;3.70;99.90;;;;;;5133369;28;19994;-74
2022/04/29 04:33:36;;;;;;;;;;;3.80;99.90;;;;;;5115046;28;19911;-74
2022/04/29 04:36:04;;;;;;;;;;;3.80;99.90;;;;;;5132741;28;20348;-74
2022/04/29 04:38:30;;;;;;;;;;;3.70;99.90;;;;;;5133429;28;19914;-74
2022/04/29 04:40:56;;;;;;;;;;;3.60;99.90;;;;;;5132760;28;19983;-75
2022/04/29 04:43:22;;;;;;;;;;;3.50;99.90;;;;;;5132869;28;19908;-74
2022/04/29 04:45:48;;;;;;;;;;;3.40;99.90;;;;;;5132750;28;19914;-74
2022/04/29 04:48:14;;;;;;;;;;;3.30;99.90;;;;;;5115038;28;19911;-75
2022/04/29 04:50:39;;;;;;;;;;;3.30;99.90;;;;;;5133568;28;20386;-75
2022/04/29 04:53:05;;;;;;;;;;;3.30;99.90;;;;;;5132882;28;19960;-74
2022/04/29 04:55:31;;;;;;;;;;;3.30;99.90;;;;;;5133405;28;20364;-75
2022/04/29 04:57:57;;;;;;;;;;;3.40;99.90;;;;;;5112400;28;20280;-74
2022/04/29 05:00:22;;;;;;;;;;;3.40;99.90;;;;;;5094733;28;19914;-74
2022/04/29 05:02:48;;;;;;;;;;;3.30;99.90;;;;;;5112429;28;19907;-74
2022/04/29 05:05:13;;;;;;;;;;;3.20;99.90;;;;;;5112763;28;20045;-74
2022/04/29 05:07:40;;;;;;;;;;;3.20;99.90;;;;;;5112707;28;19918;-75
2022/04/29 05:10:06;;;;;;;;;;;3.20;99.90;;;;;;5110424;28;20365;-75
2022/04/29 05:12:36;;;;;;;;;;;3.10;99.90;;;;;;5112460;28;20002;-75
2022/04/29 05:15:02;;;;;;;;;;;3.10;99.90;;;;;;5111955;28;19970;-74
2022/04/29 05:17:28;;;;;;;;;;;3.00;99.90;;;;;;5112800;28;19908;-74
2022/04/29 05:19:53;;;;;;;;;;;3.00;99.90;;;;;;5112203;28;19915;-75
2022/04/29 05:22:20;;;;;;;;;;;3.00;99.90;;;;;;5112768;28;19908;-75
2022/04/29 05:24:47;;;;;;;;;;;3.00;99.90;;;;;;5093978;28;19986;-74
2022/04/29 05:27:13;;;;;;;;;;;2.90;99.90;;;;;;5115644;28;19915;-73
2022/04/29 05:29:38;;;;;;;;;;;3.00;99.90;;;;;;5116486;28;20277;-74
2022/04/29 05:32:04;;;;;;;;;;;3.00;99.90;;;;;;5115600;28;19912;-74
2022/04/29 05:34:30;;;;;;;;;;;3.00;99.90;;;;;;5116125;28;19915;-74
2022/04/29 05:36:55;;;;;;;;;;;3.10;99.90;;;;;;5115976;28;19908;-74
2022/04/29 05:42:14;;;;;;;;;;;3.30;99.90;;;;;;5115674;28;19915;-75
2022/04/29 05:44:40;;;;;;;;;;;3.50;99.90;;;;;;5116328;28;19915;-74
2022/04/29 05:47:06;;;;;;;;;;;3.70;99.90;;;;;;5115622;28;19904;-74
2022/04/29 05:49:31;;;;;;;;;;;3.80;99.90;;;;;;5116031;28;20375;-74
2022/04/29 05:52:03;;;;;;;;;;;4.00;99.90;;;;;;5115542;28;20266;-74
2022/04/29 05:54:31;;;;;;;;;;;4.30;99.90;;;;;;5115982;28;19934;-75
2022/04/29 05:57:00;;;;;;;;;;;4.40;99.90;;;;;;5126794;27;20385;-74
2022/04/29 05:59:25;;;;;;;;;;;4.60;99.90;;;;;;5136176;27;19908;-74
2022/04/29 06:01:51;;;;;;;;;;;4.80;99.90;;;;;;5135639;27;19915;-74
2022/04/29 06:04:16;;;;;;;;;;;4.90;99.90;;;;;;5136479;27;20249;-74
2022/04/29 06:06:42;;;;;;;;;;;5.10;99.90;;;;;;5135935;27;19935;-74
2022/04/29 06:09:08;;;;;;;;;;;5.30;99.90;;;;;;5135594;27;19957;-74
2022/04/29 06:11:34;;;;;;;;;;;5.40;99.90;;;;;;5136293;27;20346;-74
2022/04/29 06:13:59;;;;;;;;;;;5.70;99.90;;;;;;5135292;27;19955;-74
2022/04/29 06:16:26;;;;;;;;;;;5.90;99.90;;;;;;5136022;27;19911;-75
2022/04/29 06:18:51;;;;;;;;;;;6.10;99.90;;;;;;5116880;27;19973;-75
2022/04/29 06:21:18;;;;;;;;;;;6.30;99.90;;;;;;5135667;27;19908;-75
2022/04/29 06:23:48;;;;;;;;;;;6.50;99.90;;;;;;5136892;27;19907;-74
2022/04/29 06:26:14;;;;;;;;;;;6.70;99.90;;;;;;5135894;27;19907;-74
2022/04/29 06:28:39;;;;;;;;;;;6.80;99.90;;;;;;5136008;27;20341;-74
2022/04/29 06:31:05;;;;;;;;;;;6.90;99.90;;;;;;5135433;27;19911;-74
2022/04/29 06:33:31;;;;;;;;;;;6.90;99.90;;;;;;5135377;27;19915;-74
2022/04/29 06:35:57;;;;;;;;;;;7.00;99.90;;;;;;5134656;27;19908;-74
2022/04/29 06:38:23;;;;;;;;;;;7.10;99.90;;;;;;5134032;27;19914;-74
2022/04/29 06:40:48;;;;;;;;;;;7.20;99.90;;;;;;5135101;27;19907;-74
2022/04/29 06:43:14;;;;;;;;;;;7.30;99.90;;;;;;5134687;27;20364;-74
2022/04/29 06:45:40;;;;;;;;;;;7.50;99.90;;;;;;5135394;27;20340;-74
2022/04/29 06:48:05;;;;;;;;;;;7.60;99.90;;;;;;5134432;27;19915;-73
2022/04/29 06:50:31;;;;;;;;;;;7.70;99.90;;;;;;5135812;27;19923;-74
2022/04/29 06:52:57;;;;;;;;;;;7.70;99.90;;;;;;5135057;27;19960;-74
2022/04/29 06:55:23;;;;;;;;;;;7.90;99.90;;;;;;5135352;27;19913;-74
2022/04/29 06:57:48;;;;;;;;;;;8.00;99.90;;;;;;5135227;27;19919;-74
2022/04/29 07:00:14;;;;;;;;;;;8.20;99.90;;;;;;5134281;27;19997;-74
2022/04/29 07:02:40;;;;;;;;;;;8.30;99.90;;;;;;5135102;27;19952;-75
2022/04/29 07:05:06;;;;;;;;;;;8.50;99.90;;;;;;5134510;27;19912;-75
2022/04/29 07:07:32;;;;;;;;;;;8.60;99.90;;;;;;5135003;27;20276;-74
2022/04/29 07:09:57;;;;;;;;;;;8.80;99.90;;;;;;5134550;27;19918;-75
2022/04/29 07:12:23;;;;;;;;;;;8.90;99.90;;;;;;5135072;27;20371;-75
2022/04/29 07:14:51;;;;;;;;;;;9.10;99.90;;;;;;5134831;27;19908;-74
2022/04/29 07:17:17;;;;;;;;;;;9.20;99.90;;;;;;5134246;27;19984;-74
2022/04/29 07:19:42;;;;;;;;;;;9.40;99.90;;;;;;5134625;27;20435;-75
2022/04/29 07:22:08;;;;;;;;;;;9.50;99.90;;;;;;5098627;27;20002;-74
2022/04/29 07:24:33;;;;;;;;;;;9.70;99.90;;;;;;5134587;27;19953;-74
2022/04/29 07:27:00;;;;;;;;;;;9.90;99.90;;;;;;5133739;27;19908;-75
2022/04/29 07:29:26;;;;;;;;;;;10.00;99.90;;;;;;5116068;27;20310;-75
2022/04/29 07:31:52;;;;;;;;;;;10.00;99.90;;;;;;5134559;27;19911;-75
2022/04/29 07:34:17;;;;;;;;;;;10.10;99.90;;;;;;5134080;27;20362;-75
2022/04/29 07:42:11;;;;;;;;;;;10.30;99.90;;;;;;5133637;27;19960;-75
2022/04/29 07:44:37;;;;;;;;;;;10.40;99.90;;;;;;5134509;27;19907;-74
2022/04/29 07:47:02;;;;;;;;;;;10.50;99.90;;;;;;5134172;27;19953;-74
2022/04/29 07:49:28;;;;;;;;;;;10.60;99.90;;;;;;5133894;27;20010;-75
2022/04/29 07:51:54;;;;;;;;;;;10.70;99.90;;;;;;5115862;27;19957;-75
2022/04/29 07:54:19;;;;;;;;;;;10.80;99.90;;;;;;5134334;27;19907;-75
2022/04/29 07:56:45;;;;;;;;;;;10.80;99.90;;;;;;5134205;27;19920;-75
2022/04/29 07:59:10;;;;;;;;;;;10.90;99.90;;;;;;5133654;27;19908;-75
2022/04/29 08:01:37;;;;;;;;;;;10.90;99.90;;;;;;5134085;27;20009;-75
2022/04/29 08:04:02;;;;;;;;;;;10.90;99.90;;;;;;5133486;27;19947;-75
2022/04/29 08:06:28;;;;;;;;;;;10.80;99.90;;;;;;5134068;27;19955;-74
2022/04/29 08:08:54;;;;;;;;;;;10.80;99.90;;;;;;5134011;27;19919;-74
2022/04/29 08:11:19;;;;;;;;;;;11.00;99.90;;;;;;5133351;27;19917;-74
2022/04/29 08:13:45;;;;;;;;;;;11.00;99.90;;;;;;5133848;27;19930;-75
2022/04/29 08:16:11;;;;;;;;;;;10.90;99.90;;;;;;5132817;27;20261;-75
2022/04/29 08:18:37;;;;;;;;;;;10.90;99.90;;;;;;5133656;27;19964;-75
2022/04/29 08:21:02;;;;;;;;;;;11.10;99.90;;;;;;5133336;27;19908;-75
2022/04/29 08:23:28;;;;;;;;;;;11.10;99.90;;;;;;5133729;27;19915;-74
2022/04/29 08:25:53;;;;;;;;;;;11.10;99.90;;;;;;5133931;27;19908;-74
2022/04/29 08:28:19;;;;;;;;;;;11.10;99.90;;;;;;5132786;27;20279;-74
2022/04/29 08:30:45;;;;;;;;;;;10.90;99.90;;;;;;5133705;28;19911;-74
2022/04/29 08:33:12;;;;;;;;;;;11.00;99.90;;;;;;5133120;28;20398;-74
2022/04/29 08:35:37;;;;;;;;;;;11.10;99.90;;;;;;5133839;28;19954;-75
2022/04/29 08:38:04;;;;;;;;;;;11.10;99.90;;;;;;5133185;28;19954;-74
2022/04/29 08:40:30;;;;;;;;;;;10.80;99.90;;;;;;5114270;28;19914;-74
2022/04/29 08:42:57;;;;;;;;;;;10.80;99.90;;;;;;5132864;28;20344;-73
2022/04/29 08:45:22;;;;;;;;;;;10.70;99.90;;;;;;5133309;28;19915;-74
2022/04/29 08:47:48;;;;;;;;;;;10.80;99.90;;;;;;5132557;28;19911;-74
2022/04/29 08:50:15;;;;;;;;;;;10.80;99.90;;;;;;5132600;28;19934;-74
2022/04/29 08:52:40;;;;;;;;;;;10.90;99.90;;;;;;5132945;28;19914;-74
2022/04/29 09:00:38;;;;;;;;;;;11.40;99.90;;;;;;5133365;27;19914;-74
2022/04/29 09:03:05;;;;;;;;;;;11.40;99.90;;;;;;5136250;27;19907;-75
2022/04/29 09:05:31;;;;;;;;;;;11.30;99.90;;;;;;5141969;27;19911;-75
2022/04/29 09:08:01;;;;;;;;;;;11.40;99.90;;;;;;5145616;27;19994;-75
2022/04/29 09:10:34;;;;;;;;;;;11.20;99.90;;;;;;5145826;27;19915;-75
2022/04/29 09:13:12;;;;;;;;;;;11.20;99.90;;;;;;5151238;27;19907;-75
2022/04/29 09:15:45;;;;;;;;;;;11.20;99.90;;;;;;5157554;27;19907;-74
2022/04/29 09:18:11;;;;;;;;;;;11.20;99.90;;;;;;5156862;27;19914;-74
2022/04/29 09:20:37;;;;;;;;;;;11.10;99.90;;;;;;5138910;27;19950;-74
2022/04/29 09:23:02;;;;;;;;;;;11.20;99.90;;;;;;5156753;27;19907;-75
2022/04/29 09:25:33;;;;;;;;;;;11.10;99.90;;;;;;5157322;27;19914;-75
2022/04/29 09:28:00;;;;;;;;;;;11.20;99.90;;;;;;5156946;27;20021;-75
2022/04/29 09:30:39;;;;;;;;;;;11.30;99.90;;;;;;5157219;27;19939;-75
2022/04/29 09:33:05;;;;;;;;;;;11.10;99.90;;;;;;5138087;27;19950;-75
2022/04/29 09:35:39;;;;;;;;;;;11.00;99.90;;;;;;5157338;27;19907;-75
2022/04/29 09:40:49;;;;;;;;;;;11.30;99.90;;;;;;5157026;27;20438;-75
2022/04/29 09:43:14;;;;;;;;;;;11.30;99.90;;;;;;5156038;27;20017;-74
2022/04/29 09:45:40;;;;;;;;;;;11.40;99.90;;;;;;5157671;27;19987;-74
2022/04/29 09:48:08;;;;;;;;;;;11.50;99.90;;;;;;5156219;27;19911;-74
2022/04/29 09:50:50;;;;;;;;;;;11.50;99.90;;;;;;5137862;27;19911;-75
2022/04/29 09:53:16;;;;;;;;;;;11.60;99.90;;;;;;5156599;27;19907;-74
2022/04/29 09:55:42;;;;;;;;;;;11.60;99.90;;;;;;5157239;27;19991;-74
2022/04/29 09:58:09;;;;;;;;;;;11.70;99.90;;;;;;5156790;27;20307;-75
2022/04/29 10:00:35;;;;;;;;;;;11.80;99.90;;;;;;5157290;27;19907;-74
2022/04/29 10:03:03;;;;;;;;;;;11.90;99.90;;;;;;5156754;27;20391;-74
2022/04/29 10:05:30;;;;;;;;;;;11.90;99.90;;;;;;5157050;27;19958;-75
2022/04/29 10:07:57;;;;;;;;;;;12.10;99.90;;;;;;5156920;27;19911;-74
2022/04/29 10:10:24;;;;;;;;;;;12.20;99.90;;;;;;5156803;27;19918;-75
2022/04/29 10:12:50;;;;;;;;;;;12.40;99.90;;;;;;5136805;27;20423;-75
2022/04/29 10:15:17;;;;;;;;;;;12.40;99.90;;;;;;5156319;27;19957;-74
2022/04/29 10:23:15;;;;;;;;;;;12.30;99.90;;;;;;5156102;27;19913;-74
2022/04/29 10:25:45;;;;;;;;;;;12.30;99.90;;;;;;5156889;27;20001;-74
2022/04/29 10:28:15;;;;;;;;;;;12.50;99.90;;;;;;5156031;27;19911;-75
2022/04/29 10:30:41;;;;;;;;;;;12.50;99.90;;;;;;5156659;27;19982;-74
2022/04/29 10:33:07;;;;;;;;;;;12.80;99.90;;;;;;5155946;27;19961;-76
2022/04/29 10:35:39;;;;;;;;;;;12.80;99.90;;;;;;5156660;27;19907;-76
2022/04/29 10:38:27;;;;;;;;;;;12.80;99.90;;;;;;5137353;27;20276;-76
2022/04/29 10:41:13;;;;;;;;;;;12.50;99.90;;;;;;5156718;27;19907;-76
2022/04/29 10:43:51;;;;;;;;;;;12.70;99.90;;;;;;5155304;27;19975;-75
2022/04/29 10:46:20;;;;;;;;;;;12.80;99.90;;;;;;5155785;27;19953;-75
2022/04/29 10:48:46;;;;;;;;;;;12.70;99.90;;;;;;5155836;27;19911;-75
2022/04/29 10:51:15;;;;;;;;;;;12.70;99.90;;;;;;5154943;27;19918;-76
2022/04/29 10:53:41;;;;;;;;;;;12.80;99.90;;;;;;5155918;27;19907;-75
2022/04/29 10:56:25;;;;;;;;;;;12.80;99.90;;;;;;5154951;27;20352;-75
2022/04/29 10:58:51;;;;;;;;;;;12.50;99.90;;;;;;5155954;27;19907;-75
2022/04/29 11:01:16;;;;;;;;;;;12.50;99.90;;;;;;5136704;27;20241;-75
2022/04/29 11:03:45;;;;;;;;;;;12.40;99.90;;;;;;5155469;27;20058;-75
2022/04/29 11:06:11;;;;;;;;;;;12.40;99.90;;;;;;5154872;27;19907;-75
2022/04/29 11:08:37;;;;;;;;;;;12.40;99.90;;;;;;5155602;27;19958;-75
2022/04/29 11:11:03;;;;;;;;;;;12.50;99.90;;;;;;5155573;27;20253;-74
2022/04/29 11:13:30;;;;;;;;;;;12.40;99.90;;;;;;5154837;27;19915;-75
2022/04/29 11:16:14;;;;;;;;;;;12.40;99.90;;;;;;5155485;27;20336;-75
2022/04/29 11:18:42;;;;;;;;;;;12.30;99.90;;;;;;5155364;27;19992;-74
2022/04/29 11:26:43;;;;;;;;;;;12.50;99.90;;;;;;5155019;27;19918;-74
2022/04/29 11:29:10;;;;;;;;;;;12.40;99.90;;;;;;5154549;27;19979;-74
2022/04/29 11:31:36;;;;;;;;;;;12.50;99.90;;;;;;5154771;27;20380;-75
2022/04/29 11:34:09;;;;;;;;;;;12.80;99.90;;;;;;5154809;27;20028;-75
2022/04/29 11:36:35;;;;;;;;;;;12.90;99.90;;;;;;5154952;27;20002;-75
2022/04/29 11:39:03;;;;;;;;;;;13.00;99.90;;;;;;5154780;27;19907;-74
2022/04/29 11:41:30;;;;;;;;;;;13.10;99.90;;;;;;5153769;27;20044;-75
2022/04/29 11:43:56;;;;;;;;;;;13.20;99.90;;;;;;5154776;27;19907;-75
2022/04/29 11:46:21;;;;;;;;;;;13.40;99.90;;;;;;5154355;27;19907;-75
2022/04/29 11:48:51;;;;;;;;;;;13.50;99.90;;;;;;5154678;27;19930;-75
2022/04/29 11:51:16;;;;;;;;;;;13.50;99.90;;;;;;5154070;27;19915;-75
2022/04/29 11:53:52;;;;;;;;;;;13.40;99.90;;;;;;5154595;27;19907;-75
2022/04/29 11:56:18;;;;;;;;;;;13.30;99.90;;;;;;5153521;27;19919;-75
2022/04/29 11:58:44;;;;;;;;;;;13.30;99.90;;;;;;5155083;27;19971;-75
2022/04/29 12:01:09;;;;;;;;;;;13.30;99.90;;;;;;5154363;27;20420;-75
2022/04/29 12:03:35;;;;;;;;;;;13.40;99.90;;;;;;5154314;27;19919;-75
2022/04/29 12:06:03;;;;;;;;;;;13.40;99.90;;;;;;5154832;27;20330;-75
2022/04/29 12:08:38;;;;;;;;;;;13.50;99.90;;;;;;5153906;27;19922;-75
2022/04/29 12:11:04;;;;;;;;;;;13.40;99.90;;;;;;5154657;27;19911;-75
2022/04/29 12:13:30;;;;;;;;;;;13.40;99.90;;;;;;5154006;27;20630;-75
2022/04/29 12:15:56;;;;;;;;;;;13.50;99.90;;;;;;5154049;27;19907;-75
2022/04/29 12:18:36;;;;;;;;;;;13.60;99.90;;;;;;5153488;27;20362;-75
2022/04/29 12:21:02;;;;;;;;;;;13.70;99.90;;;;;;5154455;27;20348;-75
2022/04/29 12:23:31;;;;;;;;;;;13.80;99.90;;;;;;5153770;27;19914;-75
2022/04/29 12:25:59;;;;;;;;;;;13.70;99.90;;;;;;5153993;27;19961;-75
2022/04/29 12:28:27;;;;;;;;;;;13.60;99.90;;;;;;5152653;27;19911;-75
2022/04/29 12:36:27;;;;;;;;;;;13.70;99.90;;;;;;5151667;27;19955;-76
2022/04/29 12:39:02;;;;;;;;;;;13.70;99.90;;;;;;5153677;27;19911;-75
2022/04/29 12:41:29;;;;;;;;;;;13.70;99.90;;;;;;5153514;27;20055;-75
2022/04/29 12:45:03;;;;;;;;;;;13.70;99.90;;;;;;5135166;27;20271;-76
2022/04/29 12:46:59;;;;;;;;;;;13.70;99.90;;;;;;5153455;27;19956;-75
2022/04/29 12:49:24;;;;;;;;;;;13.80;99.90;;;;;;5153295;27;19962;-76
2022/04/29 12:51:58;;;;;;;;;;;13.60;99.90;;;;;;5153761;27;19911;-76
2022/04/29 12:54:25;;;;;;;;;;;13.50;99.90;;;;;;5153043;27;19907;-76
2022/04/29 12:56:53;;;;;;;;;;;13.40;99.90;;;;;;5153857;27;20287;-75
2022/04/29 12:59:23;;;;;;;;;;;13.50;99.90;;;;;;5153879;27;19908;-76
2022/04/29 13:01:49;;;;;;;;;;;13.50;99.90;;;;;;5154073;27;19915;-75
2022/04/29 13:04:14;;;;;;;;;;;13.30;99.90;;;;;;5153560;27;20355;-76
2022/04/29 13:06:40;;;;;;;;;;;13.40;99.90;;;;;;5153543;27;19932;-76
2022/04/29 13:09:05;;;;;;;;;;;13.40;99.90;;;;;;5153935;27;20339;-75
2022/04/29 13:11:32;;;;;;;;;;;13.30;99.90;;;;;;5153069;27;19911;-76
2022/04/29 13:13:58;;;;;;;;;;;13.20;99.90;;;;;;5153842;27;19907;-75
2022/04/29 13:16:24;;;;;;;;;;;13.20;99.90;;;;;;5153294;27;20040;-75
2022/04/29 13:18:50;;;;;;;;;;;13.30;99.90;;;;;;5153480;27;20426;-76
2022/04/29 13:21:16;;;;;;;;;;;13.20;99.90;;;;;;5153327;27;19907;-76
2022/04/29 13:23:42;;;;;;;;;;;13.30;99.90;;;;;;5153332;27;19907;-74
2022/04/29 13:26:09;;;;;;;;;;;13.40;99.90;;;;;;5153747;27;19907;-75
2022/04/29 13:28:35;;;;;;;;;;;13.50;99.90;;;;;;5152944;27;20104;-74
2022/04/29 13:31:02;;;;;;;;;;;13.60;99.90;;;;;;5153394;27;20367;-75
2022/04/29 13:33:27;;;;;;;;;;;13.70;99.90;;;;;;5153389;27;20267;-75
2022/04/29 13:35:53;;;;;;;;;;;13.80;99.90;;;;;;5153724;27;19907;-74
2022/04/29 13:38:19;;;;;;;;;;;13.70;99.90;;;;;;5152705;27;19926;-75
2022/04/29 13:40:45;;;;;;;;;;;13.70;99.90;;;;;;5153700;27;19914;-74
2022/04/29 13:43:12;;;;;;;;;;;13.70;99.90;;;;;;5153679;27;19907;-75
2022/04/29 13:45:38;;;;;;;;;;;13.70;99.90;;;;;;5152857;27;20664;-75
2022/04/29 13:48:04;;;;;;;;;;;13.90;99.90;;;;;;5156703;27;20364;-75
2022/04/29 13:50:29;;;;;;;;;;;13.80;99.90;;;;;;5156530;27;19961;-75
2022/04/29 13:53:16;;;;;;;;;;;13.40;99.90;;;;;;5157178;27;19929;-75
2022/04/29 13:55:46;;;;;;;;;;;13.60;99.90;;;;;;5156302;27;19964;-75
2022/04/29 13:58:12;;;;;;;;;;;13.50;99.90;;;;;;5156937;27;19956;-75
2022/04/29 14:00:37;;;;;;;;;;;13.70;99.90;;;;;;5156556;27;19903;-76
2022/04/29 14:03:03;;;;;;;;;;;13.90;99.90;;;;;;5157076;27;19930;-75
2022/04/29 14:05:29;;;;;;;;;;;14.00;99.90;;;;;;5156699;27;19907;-76
2022/04/29 14:07:55;;;;;;;;;;;14.10;99.90;;;;;;5156918;27;20325;-75
2022/04/29 14:10:21;;;;;;;;;;;14.20;99.90;;;;;;5156062;27;19911;-75
2022/04/29 14:12:47;;;;;;;;;;;14.30;99.90;;;;;;5138256;27;19911;-75
2022/04/29 14:15:12;;;;;;;;;;;14.10;99.90;;;;;;5156834;27;19950;-75
2022/04/29 14:17:38;;;;;;;;;;;14.20;99.90;;;;;;5156217;27;19903;-76
2022/04/29 14:20:04;;;;;;;;;;;14.30;99.90;;;;;;5155769;27;19911;-75
2022/04/29 14:22:30;;;;;;;;;;;14.20;99.90;;;;;;5155873;27;19914;-76
2022/04/29 14:24:58;;;;;;;;;;;14.20;99.90;;;;;;5137691;27;19907;-76
2022/04/29 14:27:25;;;;;;;;;;;14.00;99.90;;;;;;5155108;27;19907;-76
2022/04/29 14:29:50;;;;;;;;;;;14.00;99.90;;;;;;5155509;27;19950;-75
2022/04/29 14:32:16;;;;;;;;;;;14.00;99.90;;;;;;5156252;27;19958;-76
2022/04/29 14:34:42;;;;;;;;;;;13.70;99.90;;;;;;5155554;27;20362;-76
2022/04/29 14:37:08;;;;;;;;;;;13.60;99.90;;;;;;5156370;27;20243;-76
2022/04/29 14:39:34;;;;;;;;;;;13.50;99.90;;;;;;5155628;27;19908;-75
2022/04/29 14:42:00;;;;;;;;;;;13.70;99.90;;;;;;5156283;27;20343;-75
2022/04/29 14:44:25;;;;;;;;;;;13.60;99.90;;;;;;5155516;27;19907;-75
2022/04/29 14:46:52;;;;;;;;;;;13.70;99.90;;;;;;5137536;27;20367;-76
2022/04/29 14:49:18;;;;;;;;;;;13.60;99.90;;;;;;5156017;27;19918;-75
2022/04/29 14:51:45;;;;;;;;;;;13.70;99.90;;;;;;5155992;27;19911;-75
2022/04/29 14:54:10;;;;;;;;;;;13.90;99.90;;;;;;5156027;27;20001;-75
2022/04/29 14:56:41;;;;;;;;;;;13.90;99.90;;;;;;5155219;27;19969;-75